createdAt,value
2019-04-28T00:00:21.468Z,8.30
2019-04-28T00:02:50.660Z,8.10
2019-04-28T00:05:18.729Z,8.00
2019-04-28T00:07:46.305Z,7.90
2019-04-28T00:10:13.711Z,7.90
2019-04-28T00:12:41.341Z,8.00
2019-04-28T00:15:10.759Z,7.80
2019-04-28T00:17:38.061Z,7.90
2019-04-28T00:20:08.313Z,7.80
2019-04-28T00:22:42.711Z,7.60
2019-04-28T00:25:21.479Z,7.80
2019-04-28T00:27:49.041Z,7.80
2019-04-28T00:30:16.404Z,7.90
2019-04-28T00:32:44.105Z,7.80
2019-04-28T00:35:11.848Z,7.80
2019-04-28T00:37:39.365Z,7.90
2019-04-28T00:40:11.128Z,7.80
2019-04-28T00:42:38.699Z,7.60
2019-04-28T00:45:07.585Z,7.50
2019-04-28T00:47:35.067Z,7.60
2019-04-28T00:50:03.096Z,7.50
2019-04-28T00:52:32.026Z,7.50
2019-04-28T00:55:02.635Z,7.60
2019-04-28T00:57:32.122Z,7.70
2019-04-28T00:59:59.619Z,7.90
2019-04-28T01:02:32.698Z,7.70
2019-04-28T01:05:01.532Z,7.60
2019-04-28T01:07:31.292Z,7.80
2019-04-28T01:10:01.532Z,7.60
2019-04-28T01:12:31.722Z,7.60
2019-04-28T01:15:04.810Z,7.60
2019-04-28T01:17:43.568Z,7.70
2019-04-28T01:20:12.550Z,7.60
2019-04-28T01:22:40.226Z,7.50
2019-04-28T01:25:10.512Z,7.30
2019-04-28T01:27:57.496Z,7.40
2019-04-28T01:30:44.606Z,7.30
2019-04-28T01:33:31.786Z,7.30
2019-04-28T01:36:00.483Z,7.10
2019-04-28T01:38:30.119Z,7.20
2019-04-28T01:40:57.373Z,7.10
2019-04-28T01:43:24.847Z,7.20
2019-04-28T01:45:52.239Z,7.20
2019-04-28T01:48:19.926Z,7.10
2019-04-28T01:50:47.577Z,7.10
2019-04-28T01:53:15.331Z,7.10
2019-04-28T01:55:42.726Z,7.20
2019-04-28T01:58:10.159Z,7.50
2019-04-28T02:00:40.419Z,7.80
2019-04-28T02:03:07.701Z,7.60
2019-04-28T02:05:35.088Z,7.60
2019-04-28T02:08:02.646Z,7.50
2019-04-28T02:10:31.485Z,7.30
2019-04-28T02:12:59.909Z,7.20
2019-04-28T02:15:30.228Z,7.30
2019-04-28T02:17:59.953Z,7.50
2019-04-28T02:20:30.153Z,7.50
2019-04-28T02:23:05.335Z,7.50
2019-04-28T02:25:32.761Z,7.40
2019-04-28T02:28:00.134Z,7.50
2019-04-28T02:30:42.303Z,7.60
2019-04-28T02:33:01.656Z,7.20
2019-04-28T02:35:31.729Z,6.80
2019-04-28T02:38:00.055Z,6.70
2019-04-28T02:40:30.362Z,6.60
2019-04-28T02:42:57.120Z,6.70
2019-04-28T02:45:24.576Z,6.60
2019-04-28T02:47:54.481Z,6.50
2019-04-28T02:50:41.397Z,6.60
2019-04-28T02:53:17.723Z,6.70
2019-04-28T02:55:45.236Z,6.80
2019-04-28T02:58:13.556Z,6.90
2019-04-28T03:00:52.609Z,6.90
2019-04-28T03:03:11.004Z,6.90
2019-04-28T03:05:41.245Z,6.90
2019-04-28T03:08:10.972Z,6.70
2019-04-28T03:10:37.706Z,6.80
2019-04-28T03:13:05.167Z,6.60
2019-04-28T03:15:32.551Z,6.60
2019-04-28T03:18:01.801Z,6.50
2019-04-28T03:20:30.648Z,6.50
2019-04-28T03:23:00.885Z,6.50
2019-04-28T03:25:42.169Z,6.70
2019-04-28T03:28:33.713Z,6.80
2019-04-28T03:31:48.146Z,6.80
2019-04-28T03:33:50.452Z,6.90
2019-04-28T03:36:17.467Z,7.00
2019-04-28T03:38:44.891Z,7.00
2019-04-28T03:41:12.354Z,7.00
2019-04-28T03:43:40.648Z,7.10
2019-04-28T03:46:13.863Z,7.20
2019-04-28T03:48:41.229Z,7.10
2019-04-28T03:51:10.821Z,6.90
2019-04-28T03:53:40.788Z,6.80
2019-04-28T03:56:07.182Z,6.80
2019-04-28T03:58:34.622Z,7.00
2019-04-28T04:01:04.216Z,6.90
2019-04-28T04:03:31.750Z,6.70
2019-04-28T04:06:00.721Z,6.50
2019-04-28T04:08:31.141Z,6.60
2019-04-28T04:11:12.247Z,6.70
2019-04-28T04:13:44.781Z,6.50
2019-04-28T04:16:31.680Z,6.40
2019-04-28T04:19:03.101Z,6.40
2019-04-28T04:21:31.233Z,6.50
2019-04-28T04:24:01.241Z,6.60
2019-04-28T04:26:32.903Z,6.80
2019-04-28T04:29:00.688Z,6.90
2019-04-28T04:31:27.716Z,6.70
2019-04-28T04:33:55.178Z,6.70
2019-04-28T04:36:22.657Z,6.70
2019-04-28T04:38:51.271Z,6.70
2019-04-28T04:41:20.244Z,6.70
2019-04-28T04:43:51.027Z,6.80
2019-04-28T04:46:21.998Z,6.90
2019-04-28T04:48:50.755Z,6.90
2019-04-28T04:51:20.911Z,7.10
2019-04-28T04:53:50.715Z,7.30
2019-04-28T04:56:17.278Z,7.30
2019-04-28T04:58:44.773Z,7.30
2019-04-28T05:01:31.729Z,7.40
2019-04-28T05:04:04.532Z,7.40
2019-04-28T05:06:35.531Z,7.40
2019-04-28T05:09:06.782Z,7.20
2019-04-28T05:11:34.379Z,7.40
2019-04-28T05:14:01.883Z,7.60
2019-04-28T05:16:29.829Z,7.80
2019-04-28T05:18:59.901Z,8.10
2019-04-28T05:21:26.959Z,8.20
2019-04-28T05:24:15.671Z,8.20
2019-04-28T05:26:47.676Z,8.30
2019-04-28T05:29:11.813Z,8.20
2019-04-28T05:31:40.097Z,8.30
2019-04-28T05:34:08.180Z,8.40
2019-04-28T05:36:40.929Z,8.50
2019-04-28T05:39:06.100Z,8.50
2019-04-28T05:41:33.615Z,8.40
2019-04-28T05:44:01.090Z,8.50
2019-04-28T05:46:30.030Z,8.40
2019-04-28T05:49:12.319Z,8.50
2019-04-28T05:51:41.023Z,8.60
2019-04-28T05:54:15.243Z,8.60
2019-04-28T05:57:02.373Z,8.50
2019-04-28T05:59:46.723Z,8.40
2019-04-28T06:02:21.889Z,8.30
2019-04-28T06:04:49.485Z,8.10
2019-04-28T06:07:24.266Z,8.00
2019-04-28T06:09:52.884Z,8.00
2019-04-28T06:12:20.574Z,8.00
2019-04-28T06:14:50.209Z,8.00
2019-04-28T06:17:17.783Z,8.00
2019-04-28T06:19:45.242Z,8.10
2019-04-28T06:22:12.634Z,8.20
2019-04-28T06:24:40.093Z,8.30
2019-04-28T06:27:07.520Z,8.50
2019-04-28T06:29:35.011Z,8.50
2019-04-28T06:32:02.462Z,8.60
2019-04-28T06:34:29.842Z,8.70
2019-04-28T06:36:58.081Z,8.80
2019-04-28T06:39:25.435Z,8.80
2019-04-28T06:41:52.913Z,9.00
2019-04-28T06:44:20.411Z,9.10
2019-04-28T06:46:48.286Z,9.20
2019-04-28T06:49:15.991Z,9.20
2019-04-28T06:51:43.523Z,9.70
2019-04-28T06:54:10.971Z,9.90
2019-04-28T06:56:38.447Z,9.90
2019-04-28T06:59:05.851Z,10.00
2019-04-28T07:01:33.220Z,10.20
2019-04-28T07:04:00.662Z,10.30
2019-04-28T07:06:28.422Z,10.40
2019-04-28T07:08:55.872Z,10.50
2019-04-28T07:11:23.322Z,10.50
2019-04-28T07:13:51.816Z,10.50
2019-04-28T07:16:19.424Z,10.30
2019-04-28T07:18:46.912Z,10.10
2019-04-28T07:21:29.934Z,10.10
2019-04-28T07:23:57.546Z,10.20
2019-04-28T07:26:25.422Z,10.30
2019-04-28T07:28:52.829Z,10.30
2019-04-28T07:31:21.913Z,10.20
2019-04-28T07:33:49.413Z,10.30
2019-04-28T07:36:16.883Z,10.50
2019-04-28T07:38:44.335Z,10.60
2019-04-28T07:41:11.807Z,10.90
2019-04-28T07:43:39.289Z,11.00
2019-04-28T07:46:07.027Z,11.10
2019-04-28T07:48:36.098Z,11.50
2019-04-28T07:51:03.632Z,11.60
2019-04-28T07:53:36.740Z,11.70
2019-04-28T07:56:04.526Z,11.70
2019-04-28T07:58:32.078Z,11.90
2019-04-28T08:00:59.529Z,11.90
2019-04-28T08:03:27.188Z,12.10
2019-04-28T08:05:55.135Z,12.50
2019-04-28T08:08:22.734Z,12.60
2019-04-28T08:10:50.285Z,12.50
2019-04-28T08:13:18.253Z,12.30
2019-04-28T08:15:45.881Z,12.10
2019-04-28T08:18:13.746Z,11.90
2019-04-28T08:20:41.357Z,11.80
2019-04-28T08:23:09.027Z,11.90
2019-04-28T08:25:36.539Z,12.10
2019-04-28T08:28:04.509Z,12.40
2019-04-28T08:30:32.117Z,12.40
2019-04-28T08:33:13.062Z,12.50
2019-04-28T08:35:40.527Z,12.40
2019-04-28T08:38:08.080Z,12.20
2019-04-28T08:40:35.618Z,12.30
2019-04-28T08:43:03.150Z,12.20
2019-04-28T08:45:30.701Z,12.00
2019-04-28T08:47:58.329Z,12.20
2019-04-28T08:50:26.160Z,12.30
2019-04-28T08:52:53.759Z,12.10
2019-04-28T08:55:21.332Z,12.30
2019-04-28T08:57:48.829Z,12.60
2019-04-28T09:00:17.772Z,12.40
2019-04-28T09:02:46.409Z,12.40
2019-04-28T09:05:17.035Z,12.50
2019-04-28T09:07:45.264Z,12.60
2019-04-28T09:10:13.364Z,12.80
2019-04-28T09:12:41.425Z,12.70
2019-04-28T09:15:10.204Z,12.70
2019-04-28T09:17:37.655Z,12.80
2019-04-28T09:20:05.224Z,13.00
2019-04-28T09:22:32.760Z,13.10
2019-04-28T09:25:00.926Z,13.30
2019-04-28T09:27:30.675Z,13.50
2019-04-28T09:29:58.655Z,13.70
2019-04-28T09:32:26.153Z,13.80
2019-04-28T09:34:53.725Z,13.80
2019-04-28T09:37:21.250Z,13.80
2019-04-28T09:39:57.063Z,13.70
2019-04-28T09:42:42.842Z,13.60
2019-04-28T09:45:16.303Z,13.50
2019-04-28T09:47:43.900Z,13.20
2019-04-28T09:50:11.595Z,13.20
2019-04-28T09:52:39.471Z,13.10
2019-04-28T09:55:07.139Z,12.50
2019-04-28T09:57:34.841Z,12.20
2019-04-28T10:00:02.992Z,11.80
2019-04-28T10:02:30.902Z,11.70
2019-04-28T10:04:58.493Z,11.50
2019-04-28T10:07:25.953Z,11.10
2019-04-28T10:09:53.390Z,10.90
2019-04-28T10:12:26.860Z,10.90
2019-04-28T10:14:50.819Z,10.80
2019-04-28T10:17:18.286Z,10.60
2019-04-28T10:19:46.278Z,10.40
2019-04-28T10:22:13.876Z,10.70
2019-04-28T10:24:41.463Z,10.80
2019-04-28T10:27:09.041Z,11.20
2019-04-28T10:29:36.530Z,11.60
2019-04-28T10:32:04.145Z,12.10
2019-04-28T10:34:31.638Z,12.10
2019-04-28T10:36:59.300Z,12.70
2019-04-28T10:39:35.569Z,12.90
2019-04-28T10:42:03.454Z,13.30
2019-04-28T10:44:32.807Z,13.40
2019-04-28T10:47:00.614Z,13.20
2019-04-28T10:49:30.459Z,13.20
2019-04-28T10:51:59.662Z,13.20
2019-04-28T10:54:27.573Z,14.00
2019-04-28T10:56:55.139Z,15.00
2019-04-28T10:59:22.716Z,15.30
2019-04-28T11:01:50.235Z,15.80
2019-04-28T11:04:36.918Z,17.00
2019-04-28T11:07:04.783Z,19.00
2019-04-28T11:09:37.869Z,22.10
2019-04-28T11:12:08.153Z,23.40
2019-04-28T11:14:35.787Z,22.80
2019-04-28T11:17:03.466Z,22.30
2019-04-28T11:19:31.089Z,21.20
2019-04-28T11:21:58.883Z,20.10
2019-04-28T11:24:26.559Z,20.50
2019-04-28T11:26:54.108Z,20.50
2019-04-28T11:29:21.708Z,19.20
2019-04-28T11:31:49.685Z,19.00
2019-04-28T11:34:46.513Z,19.30
2019-04-28T11:37:14.891Z,20.80
2019-04-28T11:39:43.448Z,22.70
2019-04-28T11:42:11.136Z,24.40
2019-04-28T11:44:39.980Z,25.00
2019-04-28T11:47:10.356Z,24.70
2019-04-28T11:49:38.154Z,23.80
2019-04-28T11:52:06.463Z,21.60
2019-04-28T11:54:34.358Z,20.00
2019-04-28T11:57:02.277Z,18.70
2019-04-28T11:59:30.386Z,17.60
2019-04-28T12:01:58.466Z,17.10
2019-04-28T12:04:25.882Z,16.80
2019-04-28T12:06:55.002Z,16.50
2019-04-28T12:09:40.455Z,16.40
2019-04-28T12:12:15.306Z,16.00
2019-04-28T12:14:48.453Z,15.40
2019-04-28T12:17:31.046Z,15.30
2019-04-28T12:20:03.955Z,15.10
2019-04-28T12:22:31.634Z,14.80
2019-04-28T12:24:59.487Z,14.30
2019-04-28T12:27:27.666Z,14.10
2019-04-28T12:29:55.574Z,13.90
2019-04-28T12:32:23.132Z,13.70
2019-04-28T12:34:50.822Z,13.20
2019-04-28T12:37:18.411Z,12.80
2019-04-28T12:39:46.397Z,12.30
2019-04-28T12:42:14.170Z,11.80
2019-04-28T12:44:41.866Z,11.40
2019-04-28T12:47:09.934Z,11.10
2019-04-28T12:49:52.234Z,11.00
2019-04-28T12:52:19.805Z,10.90
2019-04-28T12:54:47.436Z,10.70
2019-04-28T12:57:15.379Z,10.50
2019-04-28T12:59:47.700Z,10.10
2019-04-28T13:02:40.760Z,9.60
2019-04-28T13:05:11.791Z,9.40
2019-04-28T13:07:39.685Z,9.30
2019-04-28T13:10:08.142Z,9.20
2019-04-28T13:12:36.017Z,9.10
2019-04-28T13:15:04.098Z,9.20
2019-04-28T13:17:31.648Z,9.10
2019-04-28T13:19:59.334Z,9.10
2019-04-28T13:22:30.021Z,9.20
2019-04-28T13:24:58.997Z,9.20
2019-04-28T13:27:26.718Z,9.40
2019-04-28T13:29:54.281Z,9.60
2019-04-28T13:32:21.829Z,10.00
2019-04-28T13:34:49.566Z,10.10
2019-04-28T13:37:17.145Z,9.80
2019-04-28T13:39:57.801Z,9.90
2019-04-28T13:42:25.352Z,9.90
2019-04-28T13:45:12.356Z,9.80
2019-04-28T13:47:40.012Z,9.70
2019-04-28T13:50:33.092Z,9.60
2019-04-28T13:53:00.737Z,9.50
2019-04-28T13:55:50.822Z,9.40
2019-04-28T13:58:20.245Z,9.40
2019-04-28T14:00:56.495Z,9.70
2019-04-28T14:03:32.279Z,9.70
2019-04-28T14:06:05.695Z,9.50
2019-04-28T14:08:33.170Z,9.50
2019-04-28T14:11:02.551Z,9.30
2019-04-28T14:13:30.188Z,9.50
2019-04-28T14:15:57.662Z,9.70
2019-04-28T14:18:25.486Z,9.90
2019-04-28T14:20:53.092Z,10.10
2019-04-28T14:23:21.307Z,10.40
2019-04-28T14:25:48.948Z,10.70
2019-04-28T14:28:16.629Z,10.60
2019-04-28T14:30:44.251Z,10.60
2019-04-28T14:33:12.222Z,10.70
2019-04-28T14:35:39.723Z,10.80
2019-04-28T14:38:07.208Z,10.60
2019-04-28T14:40:34.841Z,10.60
2019-04-28T14:43:02.357Z,10.50
2019-04-28T14:45:30.233Z,10.50
2019-04-28T14:47:57.761Z,10.80
2019-04-28T14:50:25.299Z,11.00
2019-04-28T14:52:52.925Z,11.30
2019-04-28T14:55:20.393Z,11.40
2019-04-28T14:57:47.904Z,11.60
2019-04-28T15:00:19.339Z,11.70
2019-04-28T15:02:52.715Z,11.70
2019-04-28T15:05:39.252Z,11.70
2019-04-28T15:08:35.471Z,12.10
2019-04-28T15:11:25.284Z,12.00
2019-04-28T15:13:55.360Z,12.20
2019-04-28T15:16:22.689Z,12.60
2019-04-28T15:18:50.166Z,12.60
2019-04-28T15:21:17.673Z,12.80
2019-04-28T15:23:45.109Z,13.00
2019-04-28T15:26:12.643Z,13.10
2019-04-28T15:28:40.061Z,13.10
2019-04-28T15:31:07.541Z,13.40
2019-04-28T15:33:34.945Z,13.80
2019-04-28T15:36:02.508Z,14.30
2019-04-28T15:38:30.148Z,14.50
2019-04-28T15:40:57.585Z,14.90
2019-04-28T15:43:25.504Z,15.20
2019-04-28T15:45:53.407Z,14.90
2019-04-28T15:48:21.150Z,14.60
2019-04-28T15:50:48.542Z,14.30
2019-04-28T15:53:16.358Z,14.30
2019-04-28T15:56:03.274Z,14.20
2019-04-28T15:58:37.638Z,14.30
2019-04-28T16:01:05.643Z,14.30
2019-04-28T16:03:33.472Z,14.60
2019-04-28T16:06:01.430Z,14.40
2019-04-28T16:08:29.349Z,14.40
2019-04-28T16:10:56.833Z,14.60
2019-04-28T16:13:24.380Z,14.40
2019-04-28T16:15:52.073Z,14.10
2019-04-28T16:18:19.604Z,14.00
2019-04-28T16:20:47.235Z,14.20
2019-04-28T16:23:14.785Z,14.40
2019-04-28T16:25:42.400Z,14.50
2019-04-28T16:28:10.036Z,14.70
2019-04-28T16:30:37.534Z,14.50
2019-04-28T16:33:05.172Z,14.70
2019-04-28T16:35:32.705Z,15.10
2019-04-28T16:38:00.516Z,15.60
2019-04-28T16:40:35.555Z,16.00
2019-04-28T16:43:05.275Z,16.00
2019-04-28T16:45:33.331Z,15.70
2019-04-28T16:48:00.915Z,15.30
2019-04-28T16:50:28.438Z,15.10
2019-04-28T16:52:55.983Z,14.80
2019-04-28T16:55:28.143Z,14.80
2019-04-28T16:58:18.288Z,14.80
2019-04-28T17:01:12.424Z,14.70
2019-04-28T17:03:40.257Z,14.50
2019-04-28T17:06:07.830Z,14.30
2019-04-28T17:08:35.833Z,14.30
2019-04-28T17:11:03.538Z,14.30
2019-04-28T17:13:31.096Z,14.20
2019-04-28T17:15:58.537Z,14.30
2019-04-28T17:18:26.147Z,14.00
2019-04-28T17:20:55.065Z,13.80
2019-04-28T17:23:23.287Z,13.70
2019-04-28T17:25:51.003Z,13.50
2019-04-28T17:28:18.581Z,13.40
2019-04-28T17:30:46.465Z,13.30
2019-04-28T17:33:14.069Z,13.20
2019-04-28T17:35:41.741Z,13.00
2019-04-28T17:38:09.925Z,13.10
2019-04-28T17:40:37.679Z,13.10
2019-04-28T17:43:06.384Z,13.00
2019-04-28T17:45:34.459Z,13.00
2019-04-28T17:48:09.630Z,13.00
2019-04-28T17:50:37.352Z,12.90
2019-04-28T17:53:05.543Z,12.80
2019-04-28T17:55:33.256Z,12.70
2019-04-28T17:58:00.859Z,12.60
2019-04-28T18:00:38.309Z,12.40
2019-04-28T18:03:19.395Z,12.40
2019-04-28T18:05:58.736Z,12.40
2019-04-28T18:08:28.184Z,12.30
2019-04-28T18:10:55.883Z,12.30
2019-04-28T18:13:23.899Z,12.20
2019-04-28T18:16:28.102Z,12.10
2019-04-28T18:18:59.622Z,12.10
2019-04-28T18:21:27.568Z,11.90
2019-04-28T18:23:55.360Z,11.70
2019-04-28T18:26:23.441Z,11.70
2019-04-28T18:28:51.067Z,11.70
2019-04-28T18:31:38.389Z,11.60
2019-04-28T18:34:25.500Z,11.50
2019-04-28T18:37:12.818Z,11.50
2019-04-28T18:40:08.874Z,11.50
2019-04-28T18:42:56.458Z,11.40
2019-04-28T18:45:24.504Z,11.20
2019-04-28T18:47:52.480Z,11.10
2019-04-28T18:50:20.804Z,11.10
2019-04-28T18:52:49.073Z,11.10
2019-04-28T18:55:16.642Z,11.20
2019-04-28T18:57:45.107Z,11.10
2019-04-28T19:00:13.002Z,11.00
2019-04-28T19:02:45.279Z,11.00
2019-04-28T19:05:13.155Z,11.00
2019-04-28T19:08:05.913Z,11.00
2019-04-28T19:10:56.206Z,11.10
2019-04-28T19:13:26.847Z,11.00
2019-04-28T19:16:13.597Z,11.10
2019-04-28T19:18:42.432Z,11.30
2019-04-28T19:21:10.639Z,11.20
2019-04-28T19:23:38.892Z,11.10
2019-04-28T19:26:09.733Z,11.10
2019-04-28T19:28:37.384Z,11.10
2019-04-28T19:31:07.126Z,11.20
2019-04-28T19:33:36.795Z,11.00
2019-04-28T19:36:07.590Z,10.80
2019-04-28T19:38:37.965Z,10.70
2019-04-28T19:41:08.690Z,10.80
2019-04-28T19:43:39.266Z,11.00
2019-04-28T19:46:10.871Z,11.00
2019-04-28T19:48:39.066Z,11.10
2019-04-28T19:51:09.139Z,11.00
2019-04-28T19:53:37.855Z,10.90
2019-04-28T19:56:12.439Z,10.80
2019-04-28T19:58:48.534Z,10.70
2019-04-28T20:01:25.530Z,10.70
2019-04-28T20:03:53.584Z,10.70
2019-04-28T20:06:21.718Z,10.60
2019-04-28T20:08:49.418Z,10.70
2019-04-28T20:11:17.371Z,10.70
2019-04-28T20:13:45.331Z,10.70
2019-04-28T20:16:13.430Z,10.60
2019-04-28T20:18:41.342Z,10.50
2019-04-28T20:21:09.262Z,10.50
2019-04-28T20:23:39.419Z,10.50
2019-04-28T20:26:07.097Z,10.40
2019-04-28T20:28:34.715Z,10.40
2019-04-28T20:31:02.252Z,10.40
2019-04-28T20:33:31.001Z,10.40
2019-04-28T20:36:03.467Z,10.30
2019-04-28T20:38:32.597Z,10.30
2019-04-28T20:41:05.970Z,10.20
2019-04-28T20:43:33.443Z,10.20
2019-04-28T20:46:01.179Z,10.20
2019-04-28T20:48:29.270Z,10.20
2019-04-28T20:50:56.938Z,10.20
2019-04-28T20:53:24.580Z,10.20
2019-04-28T20:55:52.638Z,10.10
2019-04-28T20:58:20.234Z,10.00
2019-04-28T21:00:48.003Z,9.90
2019-04-28T21:03:15.789Z,9.80
2019-04-28T21:05:43.411Z,10.00
2019-04-28T21:08:11.128Z,10.20
2019-04-28T21:10:38.977Z,10.20
2019-04-28T21:13:10.359Z,10.30
2019-04-28T21:15:37.875Z,10.30
2019-04-28T21:18:06.835Z,10.10
2019-04-28T21:20:34.389Z,10.10
2019-04-28T21:23:02.018Z,10.00
2019-04-28T21:25:29.636Z,10.10
2019-04-28T21:27:57.203Z,10.00
2019-04-28T21:30:25.003Z,10.00
2019-04-28T21:32:52.600Z,9.90
2019-04-28T21:35:20.126Z,9.90
2019-04-28T21:37:47.579Z,9.80
2019-04-28T21:40:16.241Z,9.70
2019-04-28T21:43:21.740Z,9.80
2019-04-28T21:46:17.617Z,9.70
2019-04-28T21:49:07.392Z,9.60
2019-04-28T21:51:37.310Z,9.50
2019-04-28T21:54:04.906Z,9.40
2019-04-28T21:56:32.383Z,9.60
2019-04-28T21:58:59.974Z,9.40
2019-04-28T22:01:27.627Z,9.30
2019-04-28T22:03:55.112Z,9.20
2019-04-28T22:06:22.662Z,9.40
2019-04-28T22:08:50.099Z,9.50
2019-04-28T22:11:17.522Z,9.60
2019-04-28T22:13:44.906Z,9.40
2019-04-28T22:16:12.743Z,9.40
2019-04-28T22:18:40.193Z,9.40
2019-04-28T22:21:07.611Z,9.30
2019-04-28T22:23:43.757Z,9.10
2019-04-28T22:26:30.651Z,9.10
2019-04-28T22:28:58.096Z,9.10
2019-04-28T22:31:25.662Z,9.20
2019-04-28T22:33:53.172Z,9.20
2019-04-28T22:36:20.686Z,9.30
2019-04-28T22:38:50.301Z,9.40
2019-04-28T22:41:17.807Z,9.30
2019-04-28T22:43:45.355Z,9.10
2019-04-28T22:46:12.859Z,9.20
2019-04-28T22:48:40.414Z,9.20
2019-04-28T22:51:12.177Z,9.10
2019-04-28T22:53:39.728Z,9.20
2019-04-28T22:56:26.744Z,9.10
2019-04-28T22:58:58.416Z,9.00
2019-04-28T23:01:31.132Z,9.10
2019-04-28T23:04:19.486Z,9.10
2019-04-28T23:06:47.106Z,9.20
2019-04-28T23:09:16.693Z,9.30
2019-04-28T23:11:44.204Z,9.30
2019-04-28T23:14:11.595Z,9.30
2019-04-28T23:16:39.492Z,9.40
2019-04-28T23:19:09.728Z,9.40
2019-04-28T23:21:56.733Z,9.50
2019-04-28T23:24:24.297Z,9.40
2019-04-28T23:26:51.696Z,9.40
2019-04-28T23:29:19.160Z,9.50
2019-04-28T23:31:46.622Z,9.40
2019-04-28T23:34:14.025Z,9.40
2019-04-28T23:36:41.571Z,9.40
2019-04-28T23:39:09.011Z,9.40
2019-04-28T23:41:44.885Z,9.30
2019-04-28T23:44:12.634Z,9.30
2019-04-28T23:46:56.589Z,9.30
2019-04-28T23:49:25.032Z,9.30
2019-04-28T23:52:24.333Z,9.30
2019-04-28T23:54:52.736Z,9.30
2019-04-28T23:57:20.197Z,9.20
2019-04-28T23:59:47.694Z,9.20
